Aérodrome :
LOGIN :

S'inscrire | Disclaimer

   EN    FR    IT 

 










Légende :    VFR   VFR Marginal   IFR   IFR Intensif   IFR Très Intensif
Visi : 
Plafond : 
>= 8 km
>= 3000ft
5 à 8 km
1000 à 3000 ft
1500m à 5 km
500 à 1000 ft
800 à 1500m
200 à 500 ft
< 800m
< 200 ft
Symboles :   Orages  Brouillard  Fortes neiges  Fortes précipitations  Vent > 20 kt
SIGMETs :   Divers  Orages  Givrage  Turbulence  Onde Orograph.  Cendres Volcan.






- Altitude de l'aérodrome : 587 ft
- Code IATA : XCR


LFOK - Chalons Vatry

DERNIER METAR :
  • 070200Z AUTO 26003KT 5000 BR OVC038 02/02 Q1020 TEMPO 0500 FG VV///

METARs EXPIRÉS :
  • 070130Z AUTO VRB01KT 6000 FEW002 OVC037 01/01 Q1020 TEMPO 0200 FG VV///
  • 070100Z AUTO 35003KT 6000 FEW002 OVC036 02/02 Q1020 TEMPO 0200 FG VV///
  • 070030Z AUTO 32005KT 6000 OVC035 02/02 Q1020 TEMPO 0200 FG VV///
  • 070000Z AUTO VRB01KT 1100 R10/2500U R28/1100U BR FEW001 OVC036 00/00 Q1020 TEMPO 0200 FG VV///
  • 062330Z AUTO 00000KT 0550 0350 R10/0800U R28/0400N FG VV/// 01/01 Q1021 TEMPO 0300

TAF AMD TAF LFOK
Valide du 07 à 01h jusqu'au 08 à 00h UTC


070137Z 0701/0724 VRB03KT 6000 SCT002 BKN035
BECMG 0702/0705 2000 BR
PROB40 0702/0711 0500 FG VV///
BECMG 0711/0714 6000 NSW OVC006
BECMG 0716/0719 2000 BR OVC002
BECMG 0719/0722 0300 FG VV///



MET'MAP, la Météo Aéronautique d'un coup d'oeil ! - Copyright ORBIFLY Décembre 2007 - Disclaimer

ORBIFLY MET'MAP TEAM :

Programmation & Développement : Alexandra Zaïnal
Sur une idée originale de : Baudouin d'Aumeries
Soutien technique & logistique : Manuel Goepfert
Assistance : Marc-Olivier Méhu




SOURCES & CREDITS :

   NOAA